createdAt,value
2022-10-18T00:01:27.512Z,37.27
2022-10-18T00:04:30.826Z,38.08
2022-10-18T00:07:33.625Z,38.33
2022-10-18T00:10:37.026Z,36.00
2022-10-18T00:13:41.005Z,38.83
2022-10-18T00:16:44.421Z,37.87
2022-10-18T00:19:48.249Z,33.38
2022-10-18T00:22:51.661Z,37.28
2022-10-18T00:26:11.820Z,38.05
2022-10-18T00:29:16.277Z,35.70
2022-10-18T00:32:19.460Z,32.67
2022-10-18T00:35:22.463Z,32.78
2022-10-18T00:38:25.083Z,35.97
2022-10-18T00:41:33.056Z,33.13
2022-10-18T00:44:38.509Z,32.65
2022-10-18T00:47:43.546Z,32.13
2022-10-18T00:50:57.042Z,32.47
2022-10-18T00:54:00.821Z,32.30
2022-10-18T00:57:05.305Z,32.60
2022-10-18T01:00:13.044Z,32.10
2022-10-18T01:03:16.407Z,31.40
2022-10-18T01:06:20.131Z,33.10
2022-10-18T01:09:39.744Z,32.53
2022-10-18T01:13:24.835Z,29.12
2022-10-18T01:16:32.164Z,27.98
2022-10-18T01:20:09.339Z,32.53
2022-10-18T01:23:21.137Z,29.90
2022-10-18T01:26:42.260Z,31.73
2022-10-18T01:29:59.409Z,26.62
2022-10-18T01:33:34.316Z,25.88
2022-10-18T01:36:56.660Z,25.30
2022-10-18T01:40:03.687Z,26.48
2022-10-18T01:43:10.261Z,30.52
2022-10-18T01:46:18.713Z,31.60
2022-10-18T01:49:21.742Z,28.33
2022-10-18T01:52:25.091Z,29.37
2022-10-18T01:55:39.081Z,26.95
2022-10-18T01:58:49.006Z,29.45
2022-10-18T02:02:10.834Z,29.15
2022-10-18T02:05:19.375Z,28.52
2022-10-18T02:08:35.393Z,29.57
2022-10-18T02:11:42.761Z,31.27
2022-10-18T02:14:46.067Z,27.00
2022-10-18T02:17:48.877Z,28.65
2022-10-18T02:20:52.126Z,27.85
2022-10-18T02:23:56.987Z,29.67
2022-10-18T02:26:59.901Z,28.50
2022-10-18T02:30:05.043Z,29.02
2022-10-18T02:33:15.418Z,32.72
2022-10-18T02:36:41.259Z,30.25
2022-10-18T02:39:50.281Z,36.90
2022-10-18T02:42:59.077Z,28.05
2022-10-18T02:46:02.161Z,33.08
2022-10-18T02:49:05.977Z,29.35
2022-10-18T02:52:09.602Z,33.50
2022-10-18T02:55:13.981Z,32.47
2022-10-18T02:58:16.802Z,32.80
2022-10-18T03:01:20.091Z,34.45
2022-10-18T03:04:23.162Z,30.73
2022-10-18T03:07:26.518Z,37.58
2022-10-18T03:10:29.153Z,28.93
2022-10-18T03:13:34.305Z,28.30
2022-10-18T03:16:37.085Z,27.23
2022-10-18T03:19:40.543Z,29.98
2022-10-18T03:22:43.552Z,30.77
2022-10-18T03:25:46.642Z,28.73
2022-10-18T03:28:50.421Z,28.52
2022-10-18T03:31:55.144Z,30.17
2022-10-18T03:35:01.238Z,29.42
2022-10-18T03:38:04.306Z,29.30
2022-10-18T03:41:09.363Z,26.17
2022-10-18T03:44:12.485Z,30.70
2022-10-18T03:47:15.149Z,32.55
2022-10-18T03:50:18.737Z,29.40
2022-10-18T03:53:23.171Z,29.37
2022-10-18T03:56:26.676Z,31.23
2022-10-18T03:59:29.468Z,31.67
2022-10-18T04:02:32.722Z,31.80
2022-10-18T04:05:36.750Z,30.75
2022-10-18T04:08:42.015Z,31.58
2022-10-18T04:11:45.453Z,31.07
2022-10-18T04:14:49.043Z,29.80
2022-10-18T04:17:52.000Z,33.40
2022-10-18T04:20:56.952Z,31.75
2022-10-18T04:24:00.189Z,34.92
2022-10-18T04:27:05.024Z,32.87
2022-10-18T04:30:09.203Z,30.62
2022-10-18T04:33:15.392Z,37.75
2022-10-18T04:36:22.119Z,34.33
2022-10-18T04:39:26.251Z,37.65
2022-10-18T04:42:30.302Z,37.03
2022-10-18T04:45:35.708Z,36.30
2022-10-18T04:48:38.728Z,30.25
2022-10-18T04:51:41.810Z,31.40
2022-10-18T04:54:45.141Z,31.90
2022-10-18T04:57:49.311Z,33.10
2022-10-18T05:00:54.946Z,31.52
2022-10-18T05:04:01.337Z,38.35
2022-10-18T05:07:06.996Z,37.90
2022-10-18T05:10:11.022Z,34.95
2022-10-18T05:13:17.274Z,35.20
2022-10-18T05:16:20.280Z,30.52
2022-10-18T05:19:24.074Z,37.33
2022-10-18T05:22:28.691Z,31.35
2022-10-18T05:25:32.037Z,33.20
2022-10-18T05:28:40.451Z,30.57
2022-10-18T05:31:44.665Z,28.55
2022-10-18T05:34:47.729Z,32.67
2022-10-18T05:37:50.829Z,32.50
2022-10-18T05:40:55.387Z,33.13
2022-10-18T05:43:58.750Z,34.67
2022-10-18T05:47:07.367Z,32.42
2022-10-18T05:50:13.539Z,34.00
2022-10-18T05:53:35.896Z,33.72
2022-10-18T05:56:41.079Z,31.55
2022-10-18T05:59:45.900Z,31.00
2022-10-18T06:02:50.007Z,30.95
2022-10-18T06:06:11.091Z,34.92
2022-10-18T06:09:15.138Z,30.45
2022-10-18T06:12:19.291Z,28.90
2022-10-18T06:15:22.483Z,30.03
2022-10-18T06:18:25.909Z,28.08
2022-10-18T06:21:28.683Z,27.85
2022-10-18T06:24:32.184Z,32.22
2022-10-18T06:27:36.609Z,25.45
2022-10-18T06:30:41.816Z,27.50
2022-10-18T06:34:15.917Z,26.77
2022-10-18T06:42:47.690Z,22.87
2022-10-18T06:46:24.888Z,21.40
2022-10-18T06:49:29.753Z,20.57
2022-10-18T06:52:33.203Z,25.27
2022-10-18T06:55:36.418Z,20.52
2022-10-18T06:58:39.993Z,21.40
2022-10-18T07:01:45.197Z,22.08
2022-10-18T07:04:50.543Z,22.73
2022-10-18T07:07:56.536Z,25.98
2022-10-18T07:11:02.409Z,20.17
2022-10-18T07:14:20.801Z,21.65
2022-10-18T07:17:24.711Z,25.33
2022-10-18T07:20:29.679Z,21.87
2022-10-18T07:23:37.702Z,25.05
2022-10-18T07:27:14.055Z,23.20
2022-10-18T07:30:40.761Z,21.08
2022-10-18T07:33:52.647Z,17.80
2022-10-18T07:36:56.622Z,21.57
2022-10-18T07:40:00.896Z,18.60
2022-10-18T07:43:42.196Z,21.75
2022-10-18T07:47:19.016Z,17.75
2022-10-18T07:51:17.627Z,19.35
2022-10-18T07:54:26.059Z,18.03
2022-10-18T07:57:33.490Z,16.12
2022-10-18T08:00:42.542Z,19.42
2022-10-18T08:04:04.585Z,17.37
2022-10-18T08:07:10.091Z,20.02
2022-10-18T08:11:14.026Z,18.47
2022-10-18T08:14:42.952Z,16.83
2022-10-18T08:17:46.168Z,14.65
2022-10-18T08:20:49.117Z,17.92
2022-10-18T08:23:54.241Z,17.80
2022-10-18T08:26:57.349Z,18.50
2022-10-18T08:30:02.963Z,14.40
2022-10-18T08:33:07.037Z,17.08
2022-10-18T08:36:13.040Z,15.20
2022-10-18T08:39:17.134Z,18.10
2022-10-18T08:42:40.030Z,16.57
2022-10-18T08:45:45.195Z,14.93
2022-10-18T08:48:55.666Z,15.25
2022-10-18T08:52:00.121Z,18.00
2022-10-18T08:55:14.970Z,17.00
2022-10-18T08:58:17.746Z,19.70
2022-10-18T09:02:02.316Z,17.80
2022-10-18T09:05:21.783Z,15.52
2022-10-18T09:08:41.422Z,17.85
2022-10-18T09:12:07.858Z,17.25
2022-10-18T09:15:29.947Z,13.27
2022-10-18T09:19:20.275Z,12.98
2022-10-18T09:22:54.992Z,15.48
2022-10-18T09:26:15.711Z,13.88
2022-10-18T09:29:37.992Z,13.88
2022-10-18T09:32:43.876Z,15.97
2022-10-18T09:35:55.571Z,16.92
2022-10-18T09:39:05.700Z,15.82
2022-10-18T09:42:19.616Z,13.90
2022-10-18T09:45:31.402Z,15.93
2022-10-18T09:48:52.867Z,14.97
2022-10-18T09:52:01.097Z,12.10
2022-10-18T09:55:15.710Z,14.60
2022-10-18T09:58:37.316Z,12.85
2022-10-18T10:01:40.901Z,11.90
2022-10-18T10:04:45.029Z,19.90
2022-10-18T10:07:49.854Z,14.95
2022-10-18T10:10:53.940Z,10.90
2022-10-18T10:14:10.980Z,12.98
2022-10-18T10:17:25.925Z,13.50
2022-10-18T10:20:45.896Z,18.03
2022-10-18T10:24:01.107Z,11.65
2022-10-18T10:27:07.418Z,13.80
2022-10-18T10:30:30.296Z,13.50
2022-10-18T10:33:36.338Z,10.65
2022-10-18T10:37:41.282Z,10.90
2022-10-18T10:40:53.136Z,11.70
2022-10-18T10:43:56.998Z,12.65
2022-10-18T10:47:04.005Z,9.57
2022-10-18T10:50:13.029Z,10.93
2022-10-18T10:53:27.586Z,11.00
2022-10-18T10:56:38.040Z,10.68
2022-10-18T11:00:03.062Z,10.43
2022-10-18T11:03:29.452Z,10.18
2022-10-18T11:07:02.804Z,11.18
2022-10-18T11:10:10.193Z,11.47
2022-10-18T11:13:16.319Z,11.63
2022-10-18T11:16:54.929Z,11.10
2022-10-18T11:20:09.986Z,11.10
2022-10-18T11:23:17.117Z,11.32
2022-10-18T11:26:53.791Z,11.03
2022-10-18T11:30:19.653Z,11.82
2022-10-18T11:34:08.327Z,12.48
2022-10-18T11:37:36.051Z,10.15
2022-10-18T11:40:54.692Z,9.38
2022-10-18T11:44:04.341Z,13.13
2022-10-18T11:47:15.161Z,10.88
2022-10-18T11:50:45.006Z,11.57
2022-10-18T11:54:12.226Z,12.05
2022-10-18T11:57:26.199Z,11.63
2022-10-18T12:00:41.376Z,12.00
2022-10-18T12:04:22.034Z,10.50
2022-10-18T12:07:35.062Z,9.65
2022-10-18T12:11:06.241Z,9.98
2022-10-18T12:14:38.449Z,8.82
2022-10-18T12:17:50.240Z,8.13
2022-10-18T12:20:59.024Z,8.52
2022-10-18T12:24:13.105Z,7.30
2022-10-18T12:27:27.020Z,9.40
2022-10-18T12:30:52.574Z,10.18
2022-10-18T12:33:59.071Z,8.63
2022-10-18T12:37:16.519Z,8.90
2022-10-18T12:40:32.206Z,10.27
2022-10-18T12:43:40.022Z,9.75
2022-10-18T12:46:50.311Z,8.68
2022-10-18T12:50:06.177Z,7.87
2022-10-18T12:53:09.761Z,7.32
2022-10-18T12:56:38.415Z,7.00
2022-10-18T12:59:44.234Z,8.80
2022-10-18T13:03:15.048Z,8.07
2022-10-18T13:06:19.430Z,6.77
2022-10-18T13:09:22.751Z,9.30
2022-10-18T13:12:31.042Z,8.43
2022-10-18T13:15:54.089Z,9.38
2022-10-18T13:19:15.984Z,10.10
2022-10-18T13:22:54.929Z,9.73
2022-10-18T13:26:24.965Z,6.30
2022-10-18T13:29:56.641Z,8.73
2022-10-18T13:33:32.303Z,7.12
2022-10-18T13:36:36.730Z,8.95
2022-10-18T13:39:45.321Z,9.40
2022-10-18T13:42:53.778Z,7.90
2022-10-18T13:46:03.093Z,8.02
2022-10-18T13:49:44.466Z,8.95
2022-10-18T13:53:23.046Z,7.05
2022-10-18T13:56:57.724Z,9.83
2022-10-18T14:00:24.680Z,17.62
2022-10-18T14:03:58.960Z,9.25
2022-10-18T14:07:06.197Z,6.65
2022-10-18T14:11:02.805Z,12.32
2022-10-18T14:14:34.546Z,12.23
2022-10-18T14:17:49.224Z,13.13
2022-10-18T14:21:13.413Z,9.70
2022-10-18T14:24:23.734Z,9.85
2022-10-18T14:27:33.465Z,8.95
2022-10-18T14:30:52.981Z,11.37
2022-10-18T14:34:05.080Z,11.70
2022-10-18T14:37:22.266Z,12.40
2022-10-18T14:40:40.111Z,8.63
2022-10-18T14:44:20.421Z,11.88
2022-10-18T14:47:30.665Z,10.50
2022-10-18T14:50:47.034Z,11.23
2022-10-18T14:53:52.509Z,8.82
2022-10-18T14:57:03.699Z,11.35
2022-10-18T15:00:22.040Z,11.27
2022-10-18T15:03:32.454Z,9.67
2022-10-18T15:06:48.550Z,13.65
2022-10-18T15:09:54.165Z,11.00
2022-10-18T15:13:11.159Z,12.07
2022-10-18T15:16:22.096Z,11.38
2022-10-18T15:20:06.154Z,13.33
2022-10-18T15:23:28.525Z,11.60
2022-10-18T15:26:48.022Z,10.13
2022-10-18T15:29:54.127Z,14.25
2022-10-18T15:33:11.230Z,13.18
2022-10-18T15:36:30.068Z,16.90
2022-10-18T15:39:46.011Z,13.98
2022-10-18T15:43:03.571Z,11.68
2022-10-18T15:46:32.136Z,15.18
2022-10-18T15:49:53.072Z,16.27
2022-10-18T15:53:27.199Z,29.87
2022-10-18T15:56:36.268Z,32.75
2022-10-18T16:00:02.382Z,33.47
2022-10-18T16:03:21.053Z,27.73
2022-10-18T16:06:38.136Z,26.30
2022-10-18T16:09:49.299Z,48.10
2022-10-18T16:12:59.456Z,39.60
2022-10-18T16:20:28.094Z,42.15
2022-10-18T16:23:45.120Z,45.53
2022-10-18T16:26:54.343Z,48.17
2022-10-18T16:30:48.287Z,49.53
2022-10-18T16:37:31.280Z,42.40
2022-10-18T16:40:41.289Z,40.77
2022-10-18T16:43:56.631Z,39.27
2022-10-18T16:47:02.401Z,46.35
2022-10-18T16:50:08.989Z,34.85
2022-10-18T16:53:24.036Z,44.83
2022-10-18T16:56:30.667Z,39.70
2022-10-18T16:59:50.113Z,42.00
2022-10-18T17:03:04.072Z,39.78
2022-10-18T17:10:19.098Z,37.50
2022-10-18T17:13:47.021Z,37.57
2022-10-18T17:17:14.561Z,39.50
2022-10-18T17:20:43.966Z,45.50
2022-10-18T17:24:33.171Z,58.67
2022-10-18T17:27:43.029Z,57.70
2022-10-18T17:30:57.366Z,58.57
2022-10-18T17:34:02.277Z,50.93
2022-10-18T17:37:18.251Z,50.22
2022-10-18T17:40:30.257Z,54.72
2022-10-18T17:43:48.512Z,61.17
2022-10-18T17:46:54.026Z,56.00
2022-10-18T17:50:01.183Z,59.97
2022-10-18T17:53:13.262Z,59.72
2022-10-18T17:56:32.999Z,54.13
2022-10-18T17:59:42.204Z,57.05
2022-10-18T18:02:49.160Z,57.60
2022-10-18T18:06:40.866Z,64.07
2022-10-18T18:09:45.996Z,59.05
2022-10-18T18:13:00.239Z,59.05
2022-10-18T18:16:20.587Z,76.45
2022-10-18T18:19:28.823Z,114.57
2022-10-18T18:22:41.747Z,117.90
2022-10-18T18:26:03.044Z,89.78
2022-10-18T18:29:08.969Z,77.10
2022-10-18T18:32:17.264Z,92.80
2022-10-18T18:35:25.731Z,96.83
2022-10-18T18:38:35.125Z,110.83
2022-10-18T18:41:46.929Z,121.57
2022-10-18T18:44:52.653Z,112.80
2022-10-18T18:48:05.755Z,113.00
2022-10-18T18:52:22.172Z,116.60
2022-10-18T18:55:55.068Z,104.77
2022-10-18T18:59:16.230Z,96.87
2022-10-18T19:02:33.787Z,83.28
2022-10-18T19:06:29.606Z,91.53
2022-10-18T19:09:54.109Z,96.27
2022-10-18T19:18:23.183Z,92.50
2022-10-18T19:22:02.837Z,110.15
2022-10-18T19:33:48.830Z,73.70
2022-10-18T19:37:16.234Z,75.95
2022-10-18T19:40:34.000Z,76.47
2022-10-18T19:43:38.667Z,73.57
2022-10-18T19:46:50.030Z,78.30
2022-10-18T19:49:55.593Z,69.37
2022-10-18T19:56:24.412Z,69.32
2022-10-18T19:59:28.188Z,65.00
2022-10-18T20:02:34.394Z,64.13
2022-10-18T20:05:41.603Z,65.37
2022-10-18T20:08:47.352Z,67.40
2022-10-18T20:12:02.732Z,71.78
2022-10-18T20:15:18.530Z,71.65
2022-10-18T20:18:23.866Z,77.00
2022-10-18T20:21:32.049Z,71.40
2022-10-18T20:24:42.995Z,81.57
2022-10-18T20:27:46.573Z,96.70
2022-10-18T20:31:04.744Z,95.55
2022-10-18T20:34:12.141Z,85.90
2022-10-18T20:37:17.342Z,88.93
2022-10-18T20:40:21.971Z,80.15
2022-10-18T20:43:29.017Z,77.12
2022-10-18T20:46:37.030Z,80.03
2022-10-18T20:49:40.000Z,85.40
2022-10-18T20:52:43.906Z,88.17
2022-10-18T20:55:49.966Z,77.28
2022-10-18T20:59:02.075Z,70.30
2022-10-18T21:02:13.099Z,75.53
2022-10-18T21:05:18.969Z,84.43
2022-10-18T21:08:22.447Z,78.03
2022-10-18T21:11:26.162Z,75.90
2022-10-18T21:14:29.096Z,77.65
2022-10-18T21:17:31.960Z,81.07
2022-10-18T21:20:42.125Z,85.33
2022-10-18T21:23:47.352Z,73.27
2022-10-18T21:26:52.226Z,72.78
2022-10-18T21:29:55.046Z,78.28
2022-10-18T21:32:58.231Z,77.78
2022-10-18T21:36:04.996Z,74.50
2022-10-18T21:39:14.003Z,76.07
2022-10-18T21:42:18.220Z,71.18
2022-10-18T21:45:21.166Z,67.15
2022-10-18T21:48:24.778Z,66.30
2022-10-18T21:51:29.007Z,64.03
2022-10-18T21:54:32.131Z,67.27
2022-10-18T22:00:43.563Z,64.25
2022-10-18T22:03:49.508Z,63.90
2022-10-18T22:06:53.308Z,60.67
2022-10-18T22:09:56.171Z,67.90
2022-10-18T22:13:00.048Z,63.35
2022-10-18T22:16:05.595Z,63.67
2022-10-18T22:19:08.418Z,66.82
2022-10-18T22:22:18.235Z,72.30
2022-10-18T22:25:22.421Z,78.03
2022-10-18T22:28:25.671Z,73.43
2022-10-18T22:31:33.055Z,71.20
2022-10-18T22:34:35.838Z,69.90
2022-10-18T22:37:39.700Z,73.30
2022-10-18T22:40:44.617Z,70.13
2022-10-18T22:43:47.863Z,69.20
2022-10-18T22:46:51.480Z,64.45
2022-10-18T22:49:54.999Z,61.47
2022-10-18T22:52:57.920Z,61.67
2022-10-18T22:56:00.690Z,59.97
2022-10-18T22:59:03.782Z,61.88
2022-10-18T23:02:06.493Z,68.97
2022-10-18T23:05:09.659Z,56.60
2022-10-18T23:08:14.979Z,61.57
2022-10-18T23:11:19.788Z,66.43
2022-10-18T23:14:23.424Z,63.45
2022-10-18T23:17:28.268Z,60.65
2022-10-18T23:20:31.823Z,55.80
2022-10-18T23:23:37.143Z,65.77
2022-10-18T23:26:39.781Z,57.43
2022-10-18T23:29:43.884Z,58.10
2022-10-18T23:32:46.903Z,59.30
2022-10-18T23:35:50.348Z,57.15
2022-10-18T23:38:53.570Z,59.53
2022-10-18T23:41:57.081Z,61.53
2022-10-18T23:45:00.005Z,60.65
2022-10-18T23:48:03.071Z,55.50
2022-10-18T23:51:08.633Z,58.97
2022-10-18T23:54:11.687Z,60.73
2022-10-18T23:57:14.301Z,54.47
